sensor_id;sensor_type;location;lat;lon;timestamp;pressure;altitude;pressure_sealevel;temperature;humidity
43621;BME280;29213;50.770;7.298;2023-02-15T00:01:09;102293.22;;;1.02;60.97
43621;BME280;29213;50.770;7.298;2023-02-15T00:03:35;102166.22;;;0.13;61.41
43621;BME280;29213;50.770;7.298;2023-02-15T00:06:01;102293.06;;;0.59;62.13
43621;BME280;29213;50.770;7.298;2023-02-15T00:08:27;102281.25;;;0.47;62.57
43621;BME280;29213;50.770;7.298;2023-02-15T00:10:53;102284.69;;;0.49;62.65
43621;BME280;29213;50.770;7.298;2023-02-15T00:13:18;102187.16;;;-0.10;62.41
43621;BME280;29213;50.770;7.298;2023-02-15T00:15:44;102292.31;;;0.55;62.63
43621;BME280;29213;50.770;7.298;2023-02-15T00:18:09;102240.06;;;0.25;62.56
43621;BME280;29213;50.770;7.298;2023-02-15T00:20:35;102246.66;;;0.11;62.69
43621;BME280;29213;50.770;7.298;2023-02-15T00:23:00;102281.41;;;0.42;63.22
43621;BME280;29213;50.770;7.298;2023-02-15T00:25:25;102292.75;;;0.43;63.49
43621;BME280;29213;50.770;7.298;2023-02-15T00:27:51;102216.19;;;0.09;62.99
43621;BME280;29213;50.770;7.298;2023-02-15T00:30:16;102280.63;;;0.40;63.63
43621;BME280;29213;50.770;7.298;2023-02-15T00:32:42;102263.59;;;0.26;63.44
43621;BME280;29213;50.770;7.298;2023-02-15T00:35:07;102268.13;;;0.47;63.17
43621;BME280;29213;50.770;7.298;2023-02-15T00:37:34;102271.66;;;0.46;63.46
43621;BME280;29213;50.770;7.298;2023-02-15T00:40:00;101916.66;;;-1.86;63.58
43621;BME280;29213;50.770;7.298;2023-02-15T00:42:25;102102.69;;;-0.67;63.72
43621;BME280;29213;50.770;7.298;2023-02-15T00:44:51;102206.91;;;-0.00;63.64
43621;BME280;29213;50.770;7.298;2023-02-15T00:47:16;102058.94;;;-0.88;63.10
43621;BME280;29213;50.770;7.298;2023-02-15T00:49:41;102266.91;;;0.32;63.56
43621;BME280;29213;50.770;7.298;2023-02-15T00:52:07;102269.28;;;0.14;64.11
43621;BME280;29213;50.770;7.298;2023-02-15T00:54:32;102270.06;;;0.16;64.21
43621;BME280;29213;50.770;7.298;2023-02-15T00:56:59;102159.31;;;-0.64;64.66
43621;BME280;29213;50.770;7.298;2023-02-15T00:59:25;102201.41;;;-0.18;64.03
43621;BME280;29213;50.770;7.298;2023-02-15T01:01:50;102191.84;;;-0.19;63.96
43621;BME280;29213;50.770;7.298;2023-02-15T01:04:16;102234.34;;;0.13;63.61
43621;BME280;29213;50.770;7.298;2023-02-15T01:06:41;102072.91;;;-0.88;63.57
43621;BME280;29213;50.770;7.298;2023-02-15T01:09:06;102224.81;;;-0.13;63.96
43621;BME280;29213;50.770;7.298;2023-02-15T01:11:32;102239.94;;;0.04;64.20
43621;BME280;29213;50.770;7.298;2023-02-15T01:13:58;102224.16;;;-0.20;64.38
43621;BME280;29213;50.770;7.298;2023-02-15T01:16:26;102260.56;;;0.13;64.27
43621;BME280;29213;50.770;7.298;2023-02-15T01:18:52;101852.94;;;-2.36;63.78
43621;BME280;29213;50.770;7.298;2023-02-15T01:21:21;102220.47;;;-0.14;64.06
43621;BME280;29213;50.770;7.298;2023-02-15T01:23:47;102124.53;;;-0.68;63.94
43621;BME280;29213;50.770;7.298;2023-02-15T01:26:14;102261.94;;;0.24;63.54
43621;BME280;29213;50.770;7.298;2023-02-15T01:28:39;102217.19;;;0.05;63.64
43621;BME280;29213;50.770;7.298;2023-02-15T01:31:09;102198.34;;;-0.05;63.45
43621;BME280;29213;50.770;7.298;2023-02-15T01:33:35;102254.09;;;0.24;63.41
43621;BME280;29213;50.770;7.298;2023-02-15T01:36:01;102153.44;;;-0.45;63.63
43621;BME280;29213;50.770;7.298;2023-02-15T01:38:27;102227.84;;;-0.00;63.70
43621;BME280;29213;50.770;7.298;2023-02-15T01:40:53;102144.34;;;-0.60;63.87
43621;BME280;29213;50.770;7.298;2023-02-15T01:43:41;102236.19;;;0.11;63.80
43621;BME280;29213;50.770;7.298;2023-02-15T01:46:07;102113.78;;;-0.58;63.65
43621;BME280;29213;50.770;7.298;2023-02-15T01:48:33;102217.75;;;0.14;63.09
43621;BME280;29213;50.770;7.298;2023-02-15T01:51:00;102137.19;;;-0.30;63.06
43621;BME280;29213;50.770;7.298;2023-02-15T01:53:32;102099.66;;;-0.54;63.04
43621;BME280;29213;50.770;7.298;2023-02-15T01:56:02;102165.19;;;-0.06;62.96
43621;BME280;29213;50.770;7.298;2023-02-15T01:58:29;102225.63;;;0.38;62.62
43621;BME280;29213;50.770;7.298;2023-02-15T02:00:56;102227.22;;;0.43;62.43
43621;BME280;29213;50.770;7.298;2023-02-15T02:03:38;102224.81;;;0.36;62.49
43621;BME280;29213;50.770;7.298;2023-02-15T02:06:07;102219.50;;;0.38;62.79
43621;BME280;29213;50.770;7.298;2023-02-15T02:08:33;102162.59;;;-0.06;62.62
43621;BME280;29213;50.770;7.298;2023-02-15T02:10:58;102194.25;;;0.11;62.71
43621;BME280;29213;50.770;7.298;2023-02-15T02:13:24;102206.81;;;0.27;62.52
43621;BME280;29213;50.770;7.298;2023-02-15T02:18:56;102194.50;;;0.05;62.40
43621;BME280;29213;50.770;7.298;2023-02-15T02:21:44;102208.06;;;0.17;62.98
43621;BME280;29213;50.770;7.298;2023-02-15T02:30:16;102170.88;;;-0.19;62.97
43621;BME280;29213;50.770;7.298;2023-02-15T02:33:17;102201.13;;;-0.10;62.97
43621;BME280;29213;50.770;7.298;2023-02-15T02:36:19;102151.91;;;-0.51;63.70
43621;BME280;29213;50.770;7.298;2023-02-15T02:44:44;102188.44;;;-0.22;63.48
43621;BME280;29213;50.770;7.298;2023-02-15T02:47:23;102161.94;;;-0.39;63.34
43621;BME280;29213;50.770;7.298;2023-02-15T02:49:56;102169.28;;;-0.23;63.52
43621;BME280;29213;50.770;7.298;2023-02-15T02:55:13;102185.03;;;0.01;62.74
43621;BME280;29213;50.770;7.298;2023-02-15T02:57:49;102186.16;;;-0.06;62.61
43621;BME280;29213;50.770;7.298;2023-02-15T03:00:17;102141.31;;;-0.48;62.95
43621;BME280;29213;50.770;7.298;2023-02-15T03:02:44;102176.97;;;-0.18;62.96
43621;BME280;29213;50.770;7.298;2023-02-15T03:05:16;102159.94;;;-0.30;63.60
43621;BME280;29213;50.770;7.298;2023-02-15T03:07:42;102170.94;;;-0.20;63.54
43621;BME280;29213;50.770;7.298;2023-02-15T03:10:11;102144.78;;;-0.47;63.61
43621;BME280;29213;50.770;7.298;2023-02-15T03:12:39;102054.09;;;-0.99;64.01
43621;BME280;29213;50.770;7.298;2023-02-15T03:15:29;102158.38;;;-0.36;63.83
43621;BME280;29213;50.770;7.298;2023-02-15T03:18:22;102095.41;;;-0.84;64.47
43621;BME280;29213;50.770;7.298;2023-02-15T03:20:51;102104.63;;;-0.72;64.13
43621;BME280;29213;50.770;7.298;2023-02-15T03:23:21;102099.22;;;-0.67;63.89
43621;BME280;29213;50.770;7.298;2023-02-15T03:25:57;102081.09;;;-0.73;63.55
43621;BME280;29213;50.770;7.298;2023-02-15T03:28:42;102150.34;;;-0.31;63.68
43621;BME280;29213;50.770;7.298;2023-02-15T03:31:09;102153.66;;;-0.26;63.62
43621;BME280;29213;50.770;7.298;2023-02-15T03:33:41;102091.44;;;-0.69;63.61
43621;BME280;29213;50.770;7.298;2023-02-15T03:36:14;101919.78;;;-1.75;63.56
43621;BME280;29213;50.770;7.298;2023-02-15T03:39:17;102143.41;;;-0.32;63.61
43621;BME280;29213;50.770;7.298;2023-02-15T03:41:51;102096.59;;;-0.67;63.18
43621;BME280;29213;50.770;7.298;2023-02-15T03:44:23;102018.69;;;-1.10;63.25
43621;BME280;29213;50.770;7.298;2023-02-15T03:47:12;101638.81;;;-3.39;63.18
43621;BME280;29213;50.770;7.298;2023-02-15T03:49:57;101985.38;;;-1.30;62.80
43621;BME280;29213;50.770;7.298;2023-02-15T03:52:25;102120.00;;;-0.37;62.85
43621;BME280;29213;50.770;7.298;2023-02-15T03:54:52;102078.13;;;-0.62;62.48
43621;BME280;29213;50.770;7.298;2023-02-15T03:57:23;102139.03;;;-0.32;62.92
43621;BME280;29213;50.770;7.298;2023-02-15T04:00:20;102142.63;;;-0.34;63.08
43621;BME280;29213;50.770;7.298;2023-02-15T04:05:41;102068.66;;;-0.92;62.95
43621;BME280;29213;50.770;7.298;2023-02-15T04:08:07;102131.13;;;-0.56;63.51
43621;BME280;29213;50.770;7.298;2023-02-15T04:10:33;101754.63;;;-2.91;63.49
43621;BME280;29213;50.770;7.298;2023-02-15T04:13:22;102082.41;;;-0.85;63.17
43621;BME280;29213;50.770;7.298;2023-02-15T04:15:47;102092.38;;;-0.97;63.37
43621;BME280;29213;50.770;7.298;2023-02-15T04:18:28;102137.41;;;-0.61;63.54
43621;BME280;29213;50.770;7.298;2023-02-15T04:21:12;102075.56;;;-0.89;63.42
43621;BME280;29213;50.770;7.298;2023-02-15T04:23:56;102140.53;;;-0.50;63.32
43621;BME280;29213;50.770;7.298;2023-02-15T04:26:40;102108.06;;;-0.70;63.45
43621;BME280;29213;50.770;7.298;2023-02-15T04:29:06;102102.50;;;-0.87;63.33
43621;BME280;29213;50.770;7.298;2023-02-15T04:31:31;102096.41;;;-0.86;63.45
43621;BME280;29213;50.770;7.298;2023-02-15T04:33:56;102010.91;;;-1.38;63.28
43621;BME280;29213;50.770;7.298;2023-02-15T04:36:22;102082.75;;;-0.96;63.32
43621;BME280;29213;50.770;7.298;2023-02-15T04:38:47;101937.31;;;-1.78;63.87
43621;BME280;29213;50.770;7.298;2023-02-15T04:41:13;102035.28;;;-1.11;63.35
43621;BME280;29213;50.770;7.298;2023-02-15T04:43:38;102088.06;;;-0.72;63.31
43621;BME280;29213;50.770;7.298;2023-02-15T04:46:04;102080.41;;;-0.79;63.05
43621;BME280;29213;50.770;7.298;2023-02-15T04:48:29;102079.66;;;-0.82;62.78
43621;BME280;29213;50.770;7.298;2023-02-15T04:50:55;102055.00;;;-1.00;63.41
43621;BME280;29213;50.770;7.298;2023-02-15T04:53:20;102085.63;;;-0.79;62.75
43621;BME280;29213;50.770;7.298;2023-02-15T04:55:45;102086.47;;;-0.76;63.04
43621;BME280;29213;50.770;7.298;2023-02-15T04:58:11;102030.31;;;-1.18;62.96
43621;BME280;29213;50.770;7.298;2023-02-15T05:00:36;102067.88;;;-0.94;62.84
43621;BME280;29213;50.770;7.298;2023-02-15T05:03:02;102125.59;;;-0.48;62.54
43621;BME280;29213;50.770;7.298;2023-02-15T05:05:27;102080.84;;;-0.66;62.93
43621;BME280;29213;50.770;7.298;2023-02-15T05:07:53;102022.63;;;-0.98;61.86
43621;BME280;29213;50.770;7.298;2023-02-15T05:10:18;102032.09;;;-0.94;62.58
43621;BME280;29213;50.770;7.298;2023-02-15T05:12:44;102076.69;;;-0.71;62.40
43621;BME280;29213;50.770;7.298;2023-02-15T05:15:09;102142.72;;;-0.37;62.39
43621;BME280;29213;50.770;7.298;2023-02-15T05:17:34;102005.25;;;-1.26;61.92
43621;BME280;29213;50.770;7.298;2023-02-15T05:20:00;102040.09;;;-0.98;62.43
43621;BME280;29213;50.770;7.298;2023-02-15T05:22:25;102084.81;;;-0.79;62.32
43621;BME280;29213;50.770;7.298;2023-02-15T05:24:50;102052.56;;;-1.07;62.61
43621;BME280;29213;50.770;7.298;2023-02-15T05:27:34;102045.88;;;-1.15;62.48
43621;BME280;29213;50.770;7.298;2023-02-15T05:30:18;102061.25;;;-1.04;62.83
43621;BME280;29213;50.770;7.298;2023-02-15T05:32:43;102090.72;;;-0.99;63.15
43621;BME280;29213;50.770;7.298;2023-02-15T05:35:13;102066.69;;;-1.11;63.18
43621;BME280;29213;50.770;7.298;2023-02-15T05:37:39;101934.97;;;-1.88;63.57
43621;BME280;29213;50.770;7.298;2023-02-15T05:40:05;101927.19;;;-1.89;62.78
43621;BME280;29213;50.770;7.298;2023-02-15T05:42:30;102113.53;;;-0.77;63.15
43621;BME280;29213;50.770;7.298;2023-02-15T05:44:56;102055.47;;;-1.14;63.59
43621;BME280;29213;50.770;7.298;2023-02-15T05:47:21;102026.03;;;-1.21;63.13
43621;BME280;29213;50.770;7.298;2023-02-15T05:49:46;101790.50;;;-2.71;63.08
43621;BME280;29213;50.770;7.298;2023-02-15T05:52:12;102118.31;;;-0.63;62.95
43621;BME280;29213;50.770;7.298;2023-02-15T05:54:37;102101.94;;;-0.70;62.50
43621;BME280;29213;50.770;7.298;2023-02-15T05:57:02;102078.75;;;-0.81;62.85
43621;BME280;29213;50.770;7.298;2023-02-15T05:59:28;101941.47;;;-1.73;62.80
43621;BME280;29213;50.770;7.298;2023-02-15T06:01:53;102033.56;;;-1.12;62.63
43621;BME280;29213;50.770;7.298;2023-02-15T06:04:18;101979.88;;;-1.48;62.51
43621;BME280;29213;50.770;7.298;2023-02-15T06:06:44;102033.56;;;-1.12;62.81
43621;BME280;29213;50.770;7.298;2023-02-15T06:09:11;101929.47;;;-1.78;63.28
43621;BME280;29213;50.770;7.298;2023-02-15T06:11:37;102051.00;;;-1.11;63.03
43621;BME280;29213;50.770;7.298;2023-02-15T06:14:02;101863.69;;;-2.18;62.94
43621;BME280;29213;50.770;7.298;2023-02-15T06:16:28;102049.88;;;-1.03;62.61
43621;BME280;29213;50.770;7.298;2023-02-15T06:18:53;102022.22;;;-1.11;62.28
43621;BME280;29213;50.770;7.298;2023-02-15T06:21:19;102005.25;;;-1.26;62.55
43621;BME280;29213;50.770;7.298;2023-02-15T06:23:44;101944.44;;;-1.56;61.87
43621;BME280;29213;50.770;7.298;2023-02-15T06:26:10;102046.13;;;-0.96;62.16
43621;BME280;29213;50.770;7.298;2023-02-15T06:28:35;101929.91;;;-1.65;62.43
43621;BME280;29213;50.770;7.298;2023-02-15T06:31:03;102117.00;;;-0.52;62.12
43621;BME280;29213;50.770;7.298;2023-02-15T06:33:28;102120.31;;;-0.72;62.29
43621;BME280;29213;50.770;7.298;2023-02-15T06:35:55;102065.25;;;-1.21;62.91
43621;BME280;29213;50.770;7.298;2023-02-15T06:38:22;102131.06;;;-0.81;62.77
43621;BME280;29213;50.770;7.298;2023-02-15T06:40:47;102106.34;;;-0.98;62.79
43621;BME280;29213;50.770;7.298;2023-02-15T06:43:13;102070.16;;;-1.12;63.00
43621;BME280;29213;50.770;7.298;2023-02-15T06:45:38;102125.53;;;-0.72;62.65
43621;BME280;29213;50.770;7.298;2023-02-15T06:48:04;102093.16;;;-0.95;62.12
43621;BME280;29213;50.770;7.298;2023-02-15T06:50:32;102083.53;;;-1.20;62.61
43621;BME280;29213;50.770;7.298;2023-02-15T06:52:58;102132.25;;;-0.90;63.08
43621;BME280;29213;50.770;7.298;2023-02-15T06:55:23;102108.31;;;-1.04;63.03
43621;BME280;29213;50.770;7.298;2023-02-15T06:57:49;102049.88;;;-1.30;63.16
43621;BME280;29213;50.770;7.298;2023-02-15T07:00:14;101983.09;;;-1.68;63.11
43621;BME280;29213;50.770;7.298;2023-02-15T07:02:40;102100.97;;;-0.17;77.04
43621;BME280;29213;50.770;7.298;2023-02-15T07:05:05;102055.00;;;0.45;67.86
43621;BME280;29213;50.770;7.298;2023-02-15T07:07:31;102076.31;;;0.35;62.18
43621;BME280;29213;50.770;7.298;2023-02-15T07:09:56;102032.78;;;-0.14;61.37
43621;BME280;29213;50.770;7.298;2023-02-15T07:12:22;102056.38;;;-0.15;61.37
43621;BME280;29213;50.770;7.298;2023-02-15T07:15:05;102081.03;;;-0.21;61.20
43621;BME280;29213;50.770;7.298;2023-02-15T07:17:33;102111.34;;;-0.14;61.31
43621;BME280;29213;50.770;7.298;2023-02-15T07:19:58;101990.25;;;-0.94;61.73
43621;BME280;29213;50.770;7.298;2023-02-15T07:22:24;102076.72;;;-0.47;61.70
43621;BME280;29213;50.770;7.298;2023-02-15T07:24:49;102031.56;;;-0.78;62.01
43621;BME280;29213;50.770;7.298;2023-02-15T07:27:15;102045.13;;;-0.67;62.13
43621;BME280;29213;50.770;7.298;2023-02-15T07:29:40;101977.69;;;-1.09;62.13
43621;BME280;29213;50.770;7.298;2023-02-15T07:32:05;102050.25;;;-0.63;61.67
43621;BME280;29213;50.770;7.298;2023-02-15T07:34:31;102117.75;;;-0.22;61.80
43621;BME280;29213;50.770;7.298;2023-02-15T07:36:56;102044.81;;;-0.57;61.83
43621;BME280;29213;50.770;7.298;2023-02-15T07:39:22;102036.84;;;-0.54;61.71
43621;BME280;29213;50.770;7.298;2023-02-15T07:41:47;102043.66;;;-0.50;61.69
43621;BME280;29213;50.770;7.298;2023-02-15T07:44:13;102050.66;;;-0.50;61.54
43621;BME280;29213;50.770;7.298;2023-02-15T07:46:39;102094.03;;;-0.18;62.02
43621;BME280;29213;50.770;7.298;2023-02-15T07:49:05;102090.59;;;-0.20;61.79
43621;BME280;29213;50.770;7.298;2023-02-15T07:51:30;102028.38;;;-0.61;62.37
43621;BME280;29213;50.770;7.298;2023-02-15T07:53:56;102002.97;;;-0.59;61.95
43621;BME280;29213;50.770;7.298;2023-02-15T07:56:21;102084.38;;;-0.17;62.37
43621;BME280;29213;50.770;7.298;2023-02-15T07:58:46;101929.13;;;-1.16;62.59
43621;BME280;29213;50.770;7.298;2023-02-15T08:01:33;102082.13;;;-0.27;63.00
43621;BME280;29213;50.770;7.298;2023-02-15T08:04:00;102034.13;;;-0.76;63.52
43621;BME280;29213;50.770;7.298;2023-02-15T08:06:27;102064.88;;;-0.58;63.50
43621;BME280;29213;50.770;7.298;2023-02-15T08:08:53;101987.38;;;-1.11;64.33
43621;BME280;29213;50.770;7.298;2023-02-15T08:11:30;102016.47;;;-0.70;63.51
43621;BME280;29213;50.770;7.298;2023-02-15T08:19:21;102045.84;;;-0.37;63.17
43621;BME280;29213;50.770;7.298;2023-02-15T08:21:49;101982.31;;;-0.67;63.05
43621;BME280;29213;50.770;7.298;2023-02-15T08:24:18;102009.13;;;-0.60;63.43
43621;BME280;29213;50.770;7.298;2023-02-15T08:26:44;102059.66;;;-0.58;63.92
43621;BME280;29213;50.770;7.298;2023-02-15T08:29:12;102062.09;;;-0.53;64.11
43621;BME280;29213;50.770;7.298;2023-02-15T08:31:38;102043.75;;;-0.53;64.46
43621;BME280;29213;50.770;7.298;2023-02-15T08:34:06;102065.13;;;-0.40;64.31
43621;BME280;29213;50.770;7.298;2023-02-15T08:36:32;102056.72;;;-0.48;64.37
43621;BME280;29213;50.770;7.298;2023-02-15T08:38:58;102008.69;;;-0.47;63.77
43621;BME280;29213;50.770;7.298;2023-02-15T08:41:26;102058.97;;;0.09;63.62
43621;BME280;29213;50.770;7.298;2023-02-15T08:43:53;101989.06;;;-0.13;61.93
43621;BME280;29213;50.770;7.298;2023-02-15T08:46:20;101992.66;;;-0.38;62.76
43621;BME280;29213;50.770;7.298;2023-02-15T08:48:46;102000.50;;;-0.38;63.16
43621;BME280;29213;50.770;7.298;2023-02-15T08:51:17;102020.97;;;-0.26;63.40
43621;BME280;29213;50.770;7.298;2023-02-15T08:53:45;102055.50;;;0.08;63.46
43621;BME280;29213;50.770;7.298;2023-02-15T08:56:11;102051.75;;;0.38;63.04
43621;BME280;29213;50.770;7.298;2023-02-15T08:58:37;101996.69;;;-0.07;61.88
43621;BME280;29213;50.770;7.298;2023-02-15T09:01:11;102052.06;;;0.52;62.45
43621;BME280;29213;50.770;7.298;2023-02-15T09:03:37;101850.03;;;-0.52;62.00
43621;BME280;29213;50.770;7.298;2023-02-15T09:06:04;101993.59;;;0.28;61.50
43621;BME280;29213;50.770;7.298;2023-02-15T09:08:29;101990.63;;;0.15;61.76
43621;BME280;29213;50.770;7.298;2023-02-15T09:11:04;101985.88;;;0.03;61.71
43621;BME280;29213;50.770;7.298;2023-02-15T09:13:29;101975.38;;;0.25;62.28
43621;BME280;29213;50.770;7.298;2023-02-15T09:16:03;102030.13;;;0.55;61.95
43621;BME280;29213;50.770;7.298;2023-02-15T09:18:33;101999.81;;;0.25;62.06
43621;BME280;29213;50.770;7.298;2023-02-15T09:21:15;101876.94;;;-0.48;62.66
43621;BME280;29213;50.770;7.298;2023-02-15T09:23:42;101966.19;;;0.37;62.41
43621;BME280;29213;50.770;7.298;2023-02-15T09:26:11;101969.97;;;0.50;61.97
43621;BME280;29213;50.770;7.298;2023-02-15T09:28:37;102030.53;;;0.66;62.26
43621;BME280;29213;50.770;7.298;2023-02-15T09:31:09;102035.41;;;0.97;62.05
43621;BME280;29213;50.770;7.298;2023-02-15T09:33:36;102033.63;;;1.18;61.54
43621;BME280;29213;50.770;7.298;2023-02-15T09:36:04;101969.19;;;0.71;61.16
43621;BME280;29213;50.770;7.298;2023-02-15T09:38:29;102002.41;;;0.70;61.84
43621;BME280;29213;50.770;7.298;2023-02-15T09:52:32;102012.19;;;1.08;61.72
43621;BME280;29213;50.770;7.298;2023-02-15T10:20:22;101990.00;;;2.50;58.85
43621;BME280;29213;50.770;7.298;2023-02-15T10:23:06;102035.97;;;2.78;58.52
43621;BME280;29213;50.770;7.298;2023-02-15T10:28:45;102001.81;;;2.94;57.30
43621;BME280;29213;50.770;7.298;2023-02-15T10:31:22;102035.22;;;3.27;57.23
43621;BME280;29213;50.770;7.298;2023-02-15T10:34:07;101937.06;;;2.56;57.26
43621;BME280;29213;50.770;7.298;2023-02-15T10:36:53;101976.25;;;3.14;57.22
43621;BME280;29213;50.770;7.298;2023-02-15T10:39:44;102031.25;;;3.70;56.80
43621;BME280;29213;50.770;7.298;2023-02-15T10:50:34;102025.06;;;4.35;55.04
43621;BME280;29213;50.770;7.298;2023-02-15T10:58:42;102013.84;;;4.78;54.36
43621;BME280;29213;50.770;7.298;2023-02-15T11:04:09;102009.06;;;4.85;53.63
43621;BME280;29213;50.770;7.298;2023-02-15T11:06:43;101982.31;;;4.61;53.75
43621;BME280;29213;50.770;7.298;2023-02-15T11:09:14;101956.31;;;4.69;53.18
43621;BME280;29213;50.770;7.298;2023-02-15T11:11:47;101948.38;;;4.69;53.42
43621;BME280;29213;50.770;7.298;2023-02-15T11:14:32;101994.84;;;5.31;53.38
43621;BME280;29213;50.770;7.298;2023-02-15T11:17:07;101917.47;;;5.15;52.40
43621;BME280;29213;50.770;7.298;2023-02-15T11:22:34;101952.88;;;5.27;52.58
43621;BME280;29213;50.770;7.298;2023-02-15T11:25:00;101975.56;;;5.58;52.32
43621;BME280;29213;50.770;7.298;2023-02-15T11:27:30;101965.94;;;5.57;51.86
43621;BME280;29213;50.770;7.298;2023-02-15T11:30:01;101918.53;;;5.27;51.96
43621;BME280;29213;50.770;7.298;2023-02-15T11:32:35;101958.31;;;5.38;52.67
43621;BME280;29213;50.770;7.298;2023-02-15T11:37:48;101948.00;;;5.62;52.26
43621;BME280;29213;50.770;7.298;2023-02-15T11:40:25;101884.44;;;5.36;51.87
43621;BME280;29213;50.770;7.298;2023-02-15T11:42:55;101878.81;;;5.56;51.58
43621;BME280;29213;50.770;7.298;2023-02-15T11:45:32;101891.47;;;5.51;51.42
43621;BME280;29213;50.770;7.298;2023-02-15T11:48:00;101948.78;;;5.92;51.75
43621;BME280;29213;50.770;7.298;2023-02-15T11:50:28;101939.88;;;6.21;51.40
43621;BME280;29213;50.770;7.298;2023-02-15T11:53:00;101931.66;;;6.25;51.26
43621;BME280;29213;50.770;7.298;2023-02-15T11:55:27;101934.75;;;6.05;51.24
43621;BME280;29213;50.770;7.298;2023-02-15T11:58:08;101848.72;;;5.58;51.43
43621;BME280;29213;50.770;7.298;2023-02-15T12:00:45;101930.88;;;6.23;51.22
43621;BME280;29213;50.770;7.298;2023-02-15T12:03:17;101927.13;;;6.40;51.01
43621;BME280;29213;50.770;7.298;2023-02-15T12:05:46;101835.09;;;5.65;50.85
43621;BME280;29213;50.770;7.298;2023-02-15T12:08:19;101893.31;;;6.18;51.30
43621;BME280;29213;50.770;7.298;2023-02-15T12:11:02;101877.75;;;6.13;51.28
43621;BME280;29213;50.770;7.298;2023-02-15T12:13:32;101789.19;;;5.66;50.87
43621;BME280;29213;50.770;7.298;2023-02-15T12:15:59;101916.06;;;6.61;50.62
43621;BME280;29213;50.770;7.298;2023-02-15T12:18:43;101783.66;;;5.96;50.36
43621;BME280;29213;50.770;7.298;2023-02-15T12:21:30;101857.84;;;6.48;50.75
43621;BME280;29213;50.770;7.298;2023-02-15T12:24:02;101850.63;;;6.63;50.47
43621;BME280;29213;50.770;7.298;2023-02-15T12:26:34;101890.81;;;7.07;49.62
43621;BME280;29213;50.770;7.298;2023-02-15T12:29:06;101892.13;;;7.02;50.07
43621;BME280;29213;50.770;7.298;2023-02-15T12:31:44;101881.59;;;7.13;49.99
43621;BME280;29213;50.770;7.298;2023-02-15T12:34:26;101888.75;;;7.37;49.25
43621;BME280;29213;50.770;7.298;2023-02-15T12:36:55;101882.09;;;7.31;48.91
43621;BME280;29213;50.770;7.298;2023-02-15T12:39:32;101870.81;;;7.41;49.50
43621;BME280;29213;50.770;7.298;2023-02-15T12:42:14;101849.59;;;7.41;48.66
43621;BME280;29213;50.770;7.298;2023-02-15T12:44:53;101844.81;;;7.70;48.35
43621;BME280;29213;50.770;7.298;2023-02-15T12:47:19;101860.94;;;7.67;48.10
43621;BME280;29213;50.770;7.298;2023-02-15T12:50:14;101812.22;;;7.57;48.02
43621;BME280;29213;50.770;7.298;2023-02-15T12:52:44;101806.56;;;7.61;47.94
43621;BME280;29213;50.770;7.298;2023-02-15T12:55:27;101856.94;;;8.10;47.44
43621;BME280;29213;50.770;7.298;2023-02-15T12:58:28;101857.69;;;8.24;47.73
43621;BME280;29213;50.770;7.298;2023-02-15T13:01:14;101816.31;;;8.21;47.05
43621;BME280;29213;50.770;7.298;2023-02-15T13:04:01;101846.03;;;8.61;46.90
43621;BME280;29213;50.770;7.298;2023-02-15T13:09:18;101842.06;;;8.66;47.08
43621;BME280;29213;50.770;7.298;2023-02-15T13:11:45;101786.16;;;8.91;46.25
43621;BME280;29213;50.770;7.298;2023-02-15T13:14:19;101838.72;;;9.43;44.79
43621;BME280;29213;50.770;7.298;2023-02-15T13:16:48;101841.44;;;9.64;44.76
43621;BME280;29213;50.770;7.298;2023-02-15T13:22:02;101829.97;;;8.96;44.78
43621;BME280;29213;50.770;7.298;2023-02-15T13:24:36;101828.91;;;8.76;45.25
43621;BME280;29213;50.770;7.298;2023-02-15T13:27:04;101747.41;;;8.20;45.61
43621;BME280;29213;50.770;7.298;2023-02-15T13:29:33;101800.78;;;8.74;45.42
43621;BME280;29213;50.770;7.298;2023-02-15T13:32:07;101809.91;;;8.92;44.88
43621;BME280;29213;50.770;7.298;2023-02-15T13:34:38;101766.59;;;8.80;44.81
43621;BME280;29213;50.770;7.298;2023-02-15T13:40:14;101807.03;;;9.51;43.67
43621;BME280;29213;50.770;7.298;2023-02-15T13:42:57;101803.63;;;9.60;44.42
43621;BME280;29213;50.770;7.298;2023-02-15T13:48:25;101793.56;;;9.85;43.33
43621;BME280;29213;50.770;7.298;2023-02-15T13:51:07;101789.09;;;9.86;42.68
43621;BME280;29213;50.770;7.298;2023-02-15T13:54:00;101744.19;;;9.39;43.25
43621;BME280;29213;50.770;7.298;2023-02-15T14:04:53;101740.84;;;8.92;44.87
43621;BME280;29213;50.770;7.298;2023-02-15T14:08:38;101742.28;;;8.96;44.95
43621;BME280;29213;50.770;7.298;2023-02-15T14:16:31;101765.03;;;9.22;44.92
43621;BME280;29213;50.770;7.298;2023-02-15T14:19:35;101765.91;;;9.22;44.96
43621;BME280;29213;50.770;7.298;2023-02-15T14:24:41;101719.69;;;9.35;44.00
43621;BME280;29213;50.770;7.298;2023-02-15T14:27:23;101694.13;;;9.22;44.50
43621;BME280;29213;50.770;7.298;2023-02-15T14:29:57;101705.16;;;9.39;43.54
43621;BME280;29213;50.770;7.298;2023-02-15T14:32:36;101684.91;;;9.27;44.14
43621;BME280;29213;50.770;7.298;2023-02-15T14:35:09;101761.38;;;10.10;43.33
43621;BME280;29213;50.770;7.298;2023-02-15T14:43:24;101770.94;;;9.26;46.70
43621;BME280;29213;50.770;7.298;2023-02-15T14:46:02;101764.88;;;9.46;46.86
43621;BME280;29213;50.770;7.298;2023-02-15T14:48:38;101775.88;;;9.42;45.77
43621;BME280;29213;50.770;7.298;2023-02-15T14:51:06;101723.66;;;9.08;45.62
43621;BME280;29213;50.770;7.298;2023-02-15T14:56:16;101763.75;;;9.16;45.65
43621;BME280;29213;50.770;7.298;2023-02-15T15:01:28;101757.19;;;9.20;45.59
43621;BME280;29213;50.770;7.298;2023-02-15T15:03:58;101725.09;;;9.12;44.87
43621;BME280;29213;50.770;7.298;2023-02-15T15:06:31;101762.19;;;9.14;45.54
43621;BME280;29213;50.770;7.298;2023-02-15T15:09:21;101770.22;;;8.79;45.79
43621;BME280;29213;50.770;7.298;2023-02-15T15:11:49;101728.81;;;8.65;45.98
43621;BME280;29213;50.770;7.298;2023-02-15T15:17:00;101663.69;;;7.93;46.34
43621;BME280;29213;50.770;7.298;2023-02-15T15:22:20;101715.81;;;8.16;47.14
43621;BME280;29213;50.770;7.298;2023-02-15T15:24:50;101685.88;;;8.03;47.23
43621;BME280;29213;50.770;7.298;2023-02-15T15:44:19;101713.78;;;8.32;46.58